createdAt,value
2022-10-21T00:01:23.986Z,65.16
2022-10-21T00:03:51.391Z,65.02
2022-10-21T00:06:20.089Z,65.46
2022-10-21T00:08:47.519Z,65.75
2022-10-21T00:11:14.975Z,65.68
2022-10-21T00:13:42.369Z,65.70
2022-10-21T00:16:10.802Z,65.63
2022-10-21T00:18:38.725Z,65.35
2022-10-21T00:21:06.996Z,66.05
2022-10-21T00:23:35.760Z,65.66
2022-10-21T00:26:03.154Z,65.81
2022-10-21T00:28:30.540Z,65.93
2022-10-21T00:30:58.419Z,65.32
2022-10-21T00:33:26.131Z,65.64
2022-10-21T00:35:53.831Z,65.92
2022-10-21T00:40:50.966Z,66.06
2022-10-21T00:43:18.394Z,66.16
2022-10-21T00:45:45.797Z,65.92
2022-10-21T00:48:15.833Z,66.19
2022-10-21T00:50:45.902Z,66.15
2022-10-21T00:53:14.598Z,66.47
2022-10-21T00:55:44.621Z,66.24
2022-10-21T00:58:13.304Z,66.30
2022-10-21T01:00:40.770Z,65.92
2022-10-21T01:03:08.202Z,66.30
2022-10-21T01:05:36.994Z,66.31
2022-10-21T01:08:04.601Z,66.32
2022-10-21T01:10:32.000Z,66.25
2022-10-21T01:13:07.456Z,65.83
2022-10-21T01:15:37.505Z,65.95
2022-10-21T01:18:08.698Z,66.13
2022-10-21T01:21:15.558Z,65.42
2022-10-21T01:24:24.580Z,65.49
2022-10-21T01:27:01.035Z,65.41
2022-10-21T01:29:37.671Z,66.07
2022-10-21T01:32:08.009Z,65.82
2022-10-21T01:34:37.322Z,66.36
2022-10-21T01:37:08.151Z,66.43
2022-10-21T01:39:39.464Z,66.18
2022-10-21T01:44:40.715Z,65.97
2022-10-21T01:47:11.676Z,66.21
2022-10-21T01:49:39.747Z,66.59
2022-10-21T01:52:07.571Z,66.45
2022-10-21T01:54:35.933Z,66.78
2022-10-21T01:57:03.324Z,66.69
2022-10-21T01:59:31.719Z,65.89
2022-10-21T02:01:59.445Z,66.45
2022-10-21T02:04:28.129Z,66.41
2022-10-21T02:06:55.522Z,66.19
2022-10-21T02:09:22.997Z,65.83
2022-10-21T02:11:51.354Z,65.85
2022-10-21T02:14:20.609Z,65.98
2022-10-21T02:16:48.010Z,65.68
2022-10-21T02:19:15.918Z,66.16
2022-10-21T02:21:44.752Z,66.01
2022-10-21T02:24:14.350Z,66.13
2022-10-21T02:26:41.734Z,66.17
2022-10-21T02:29:09.113Z,65.84
2022-10-21T02:31:50.655Z,66.51
2022-10-21T02:34:21.423Z,66.71
2022-10-21T02:36:53.311Z,66.16
2022-10-21T02:39:33.450Z,66.21
2022-10-21T02:42:01.126Z,66.04
2022-10-21T02:44:28.510Z,66.30
2022-10-21T02:46:55.897Z,66.10
2022-10-21T02:49:23.278Z,66.27
2022-10-21T02:51:51.959Z,66.23
2022-10-21T02:54:19.335Z,66.34
2022-10-21T02:56:46.738Z,66.52
2022-10-21T02:59:14.147Z,66.35
2022-10-21T03:01:41.568Z,66.31
2022-10-21T03:04:08.979Z,66.81
2022-10-21T03:06:36.390Z,66.25
2022-10-21T03:09:05.974Z,66.31
2022-10-21T03:11:33.387Z,67.00
2022-10-21T03:14:00.793Z,66.28
2022-10-21T03:16:28.167Z,66.32
2022-10-21T03:18:55.556Z,66.45
2022-10-21T03:21:22.967Z,66.42
2022-10-21T03:23:50.377Z,66.89
2022-10-21T03:26:19.062Z,66.99
2022-10-21T03:28:46.451Z,66.67
2022-10-21T03:31:13.848Z,66.58
2022-10-21T03:33:41.246Z,66.66
2022-10-21T03:36:08.756Z,66.89
2022-10-21T03:38:36.160Z,66.62
2022-10-21T03:41:03.540Z,66.72
2022-10-21T03:43:32.219Z,66.30
2022-10-21T03:45:59.630Z,66.74
2022-10-21T03:48:27.025Z,66.45
2022-10-21T03:50:55.841Z,66.83
2022-10-21T03:53:38.272Z,66.60
2022-10-21T03:56:09.440Z,66.69
2022-10-21T03:58:38.095Z,66.91
2022-10-21T04:01:05.520Z,66.99
2022-10-21T04:03:32.907Z,66.44
2022-10-21T04:06:00.317Z,66.79
2022-10-21T04:08:27.753Z,66.77
2022-10-21T04:13:28.740Z,67.21
2022-10-21T04:15:59.573Z,66.94
2022-10-21T04:18:27.008Z,66.79
2022-10-21T04:20:54.407Z,67.08
2022-10-21T04:23:21.780Z,66.99
2022-10-21T04:25:49.168Z,67.00
2022-10-21T04:28:16.574Z,67.11
2022-10-21T04:30:43.966Z,67.18
2022-10-21T04:33:12.648Z,66.66
2022-10-21T04:35:40.064Z,66.93
2022-10-21T04:38:07.478Z,66.93
2022-10-21T04:40:35.016Z,66.98
2022-10-21T04:43:02.455Z,66.82
2022-10-21T04:45:29.854Z,67.33
2022-10-21T04:47:57.231Z,66.79
2022-10-21T04:50:25.960Z,66.93
2022-10-21T04:52:53.361Z,67.19
2022-10-21T04:55:20.756Z,66.85
2022-10-21T04:57:48.248Z,66.86
2022-10-21T05:00:16.096Z,67.14
2022-10-21T05:02:43.524Z,67.17
2022-10-21T05:05:10.928Z,66.86
2022-10-21T05:07:39.612Z,66.81
2022-10-21T05:10:07.371Z,66.70
2022-10-21T05:15:03.089Z,66.93
2022-10-21T05:17:30.480Z,66.73
2022-10-21T05:19:57.877Z,66.76
2022-10-21T05:22:25.276Z,67.00
2022-10-21T05:24:53.981Z,67.09
2022-10-21T05:27:21.388Z,67.23
2022-10-21T05:29:48.793Z,67.05
2022-10-21T05:32:16.262Z,66.70
2022-10-21T05:34:43.642Z,66.77
2022-10-21T05:37:11.027Z,66.86
2022-10-21T05:39:38.511Z,66.77
2022-10-21T05:42:07.231Z,66.82
2022-10-21T05:44:34.627Z,66.82
2022-10-21T05:47:02.027Z,66.77
2022-10-21T05:49:29.429Z,66.79
2022-10-21T05:51:56.910Z,66.64
2022-10-21T05:54:24.296Z,66.82
2022-10-21T05:56:52.020Z,66.61
2022-10-21T05:59:20.730Z,66.66
2022-10-21T06:01:48.126Z,67.07
2022-10-21T06:04:15.553Z,67.09
2022-10-21T06:06:42.946Z,66.96
2022-10-21T06:09:10.411Z,67.35
2022-10-21T06:11:37.865Z,67.24
2022-10-21T06:14:05.278Z,67.24
2022-10-21T06:16:35.213Z,67.22
2022-10-21T06:19:02.687Z,66.98
2022-10-21T06:21:30.143Z,67.11
2022-10-21T06:23:57.613Z,67.56
2022-10-21T06:26:25.055Z,67.34
2022-10-21T06:28:52.503Z,67.25
2022-10-21T06:31:21.500Z,67.18
2022-10-21T06:33:50.312Z,67.19
2022-10-21T06:36:17.765Z,67.60
2022-10-21T06:38:45.158Z,67.70
2022-10-21T06:41:13.658Z,67.57
2022-10-21T06:43:41.240Z,67.52
2022-10-21T06:46:09.336Z,67.49
2022-10-21T06:48:36.720Z,67.46
2022-10-21T06:51:07.069Z,67.43
2022-10-21T06:53:38.118Z,67.59
2022-10-21T06:56:07.911Z,67.49
2022-10-21T06:58:35.400Z,67.63
2022-10-21T07:01:16.452Z,67.59
2022-10-21T07:03:54.913Z,67.52
2022-10-21T07:06:23.634Z,67.49
2022-10-21T07:08:57.827Z,67.43
2022-10-21T07:11:26.200Z,67.75
2022-10-21T07:13:53.580Z,67.50
2022-10-21T07:16:22.673Z,67.79
2022-10-21T07:18:50.078Z,67.76
2022-10-21T07:21:18.542Z,68.13
2022-10-21T07:23:47.941Z,68.05
2022-10-21T07:26:15.528Z,68.00
2022-10-21T07:28:46.895Z,67.89
2022-10-21T07:31:14.605Z,67.83
2022-10-21T07:33:42.013Z,67.74
2022-10-21T07:36:10.425Z,67.87
2022-10-21T07:38:37.906Z,67.80
2022-10-21T07:41:06.759Z,68.04
2022-10-21T07:43:34.267Z,67.97
2022-10-21T07:46:04.412Z,68.20
2022-10-21T07:48:34.332Z,67.84
2022-10-21T07:51:03.943Z,68.22
2022-10-21T07:53:31.472Z,68.22
2022-10-21T07:56:03.227Z,67.91
2022-10-21T07:58:32.085Z,67.97
2022-10-21T08:01:10.565Z,67.97
2022-10-21T08:03:38.024Z,68.37
2022-10-21T08:06:05.715Z,68.23
2022-10-21T08:08:33.158Z,68.54
2022-10-21T08:11:00.634Z,68.13
2022-10-21T08:13:28.136Z,68.97
2022-10-21T08:15:57.442Z,68.67
2022-10-21T08:18:25.915Z,69.35
2022-10-21T08:20:53.397Z,69.32
2022-10-21T08:23:22.017Z,69.26
2022-10-21T08:25:49.587Z,69.18
2022-10-21T08:28:17.009Z,69.34
2022-10-21T08:30:44.581Z,69.41
2022-10-21T08:33:13.335Z,69.68
2022-10-21T08:35:40.822Z,69.60
2022-10-21T08:38:08.277Z,69.80
2022-10-21T08:40:39.690Z,69.62
2022-10-21T08:43:08.214Z,70.10
2022-10-21T08:45:38.875Z,70.24
2022-10-21T08:48:07.108Z,69.97
2022-10-21T08:50:37.476Z,70.36
2022-10-21T08:53:06.773Z,70.29
2022-10-21T08:55:35.660Z,70.37
2022-10-21T08:58:03.224Z,70.45
2022-10-21T09:00:32.985Z,70.29
2022-10-21T09:03:05.747Z,70.63
2022-10-21T09:05:44.428Z,70.42
2022-10-21T09:08:16.611Z,70.77
2022-10-21T09:10:52.127Z,70.57
2022-10-21T09:13:23.594Z,70.26
2022-10-21T09:15:55.503Z,70.17
2022-10-21T09:18:29.290Z,69.91
2022-10-21T09:21:04.671Z,69.97
2022-10-21T09:23:45.653Z,70.00
2022-10-21T09:26:19.359Z,70.03
2022-10-21T09:28:46.744Z,69.70
2022-10-21T09:31:15.592Z,69.66
2022-10-21T09:33:44.505Z,69.78
2022-10-21T09:36:13.954Z,70.20
2022-10-21T09:38:43.400Z,70.09
2022-10-21T09:41:12.604Z,69.91
2022-10-21T09:43:40.022Z,70.36
2022-10-21T09:46:07.402Z,70.65
2022-10-21T09:48:54.008Z,70.56
2022-10-21T09:51:29.260Z,70.69
2022-10-21T09:53:58.122Z,70.78
2022-10-21T09:56:27.864Z,71.11
2022-10-21T09:59:07.630Z,70.92
2022-10-21T10:01:35.366Z,71.20
2022-10-21T10:04:03.158Z,70.88
2022-10-21T10:06:33.597Z,70.68
2022-10-21T10:09:07.396Z,70.72
2022-10-21T10:11:34.843Z,70.40
2022-10-21T10:14:22.734Z,70.27
2022-10-21T10:16:50.139Z,70.39
2022-10-21T10:19:18.287Z,70.31
2022-10-21T10:21:48.018Z,70.33
2022-10-21T10:24:16.966Z,70.23
2022-10-21T10:26:44.398Z,70.48
2022-10-21T10:29:18.991Z,70.67
2022-10-21T10:31:49.541Z,70.82
2022-10-21T10:34:20.418Z,70.67
2022-10-21T10:36:49.098Z,70.72
2022-10-21T10:39:17.960Z,70.78
2022-10-21T10:41:47.055Z,70.91
2022-10-21T10:44:22.599Z,71.03
2022-10-21T10:46:54.390Z,70.93
2022-10-21T10:49:22.610Z,71.01
2022-10-21T10:52:05.036Z,71.12
2022-10-21T10:54:32.512Z,71.55
2022-10-21T10:57:01.316Z,71.64
2022-10-21T10:59:33.362Z,71.82
2022-10-21T11:02:03.783Z,71.92
2022-10-21T11:04:33.830Z,71.71
2022-10-21T11:07:06.279Z,72.14
2022-10-21T11:09:34.062Z,72.13
2022-10-21T11:12:02.112Z,71.82
2022-10-21T11:14:29.525Z,72.14
2022-10-21T11:17:01.816Z,72.08
2022-10-21T11:19:36.342Z,72.34
2022-10-21T11:22:11.723Z,72.34
2022-10-21T11:24:51.197Z,72.34
2022-10-21T11:27:24.565Z,72.48
2022-10-21T11:29:57.358Z,71.85
2022-10-21T11:32:29.764Z,72.36
2022-10-21T11:35:01.862Z,72.15
2022-10-21T11:37:38.344Z,72.63
2022-10-21T11:40:11.583Z,72.35
2022-10-21T11:42:41.496Z,72.65
2022-10-21T11:45:25.459Z,72.75
2022-10-21T11:47:55.329Z,72.94
2022-10-21T11:50:25.524Z,72.31
2022-10-21T11:53:12.388Z,71.71
2022-10-21T11:55:40.332Z,72.54
2022-10-21T11:58:16.205Z,72.38
2022-10-21T12:00:46.883Z,72.66
2022-10-21T12:03:29.444Z,72.48
2022-10-21T12:06:00.990Z,72.76
2022-10-21T12:08:32.349Z,72.62
2022-10-21T12:11:00.725Z,72.53
2022-10-21T12:13:29.116Z,72.79
2022-10-21T12:15:58.896Z,72.90
2022-10-21T12:18:27.404Z,72.89
2022-10-21T12:20:54.821Z,73.13
2022-10-21T12:23:23.339Z,73.10
2022-10-21T12:26:01.058Z,73.43
2022-10-21T12:28:30.555Z,73.38
2022-10-21T12:31:01.505Z,73.45
2022-10-21T12:33:37.289Z,73.31
2022-10-21T12:36:19.245Z,73.51
2022-10-21T12:38:48.941Z,73.74
2022-10-21T12:41:31.705Z,73.58
2022-10-21T12:44:04.416Z,73.53
2022-10-21T12:46:34.942Z,73.58
2022-10-21T12:49:06.472Z,73.66
2022-10-21T12:51:34.633Z,73.41
2022-10-21T12:54:07.133Z,73.83
2022-10-21T12:56:36.503Z,73.86
2022-10-21T12:59:06.143Z,73.83
2022-10-21T13:01:39.626Z,73.47
2022-10-21T13:04:11.270Z,73.77
2022-10-21T13:06:52.702Z,73.97
2022-10-21T13:09:40.315Z,73.80
2022-10-21T13:12:30.281Z,73.94
2022-10-21T13:14:58.291Z,74.02
2022-10-21T13:17:33.588Z,74.36
2022-10-21T13:20:47.075Z,74.45
2022-10-21T13:23:31.615Z,74.31
2022-10-21T13:26:14.559Z,74.47
2022-10-21T13:28:43.233Z,74.46
2022-10-21T13:31:10.651Z,74.34
2022-10-21T13:33:38.754Z,74.34
2022-10-21T13:36:10.329Z,74.44
2022-10-21T13:38:38.425Z,74.49
2022-10-21T13:41:07.123Z,74.45
2022-10-21T13:43:36.653Z,73.90
2022-10-21T13:46:07.017Z,73.86
2022-10-21T13:48:38.462Z,74.21
2022-10-21T13:51:10.203Z,73.98
2022-10-21T13:53:43.505Z,73.75
2022-10-21T13:56:19.521Z,73.80
2022-10-21T13:58:46.959Z,73.85
2022-10-21T14:01:18.497Z,73.96
2022-10-21T14:03:45.996Z,74.04
2022-10-21T14:06:17.970Z,74.04
2022-10-21T14:08:47.089Z,73.87
2022-10-21T14:11:17.389Z,74.00
2022-10-21T14:13:44.771Z,74.50
2022-10-21T14:16:13.552Z,74.66
2022-10-21T14:18:46.241Z,74.53
2022-10-21T14:21:16.332Z,74.69
2022-10-21T14:23:45.356Z,74.74
2022-10-21T14:26:12.776Z,74.76
2022-10-21T14:28:40.181Z,74.77
2022-10-21T14:33:43.326Z,74.79
2022-10-21T14:36:14.731Z,74.41
2022-10-21T14:38:44.753Z,74.43
2022-10-21T14:41:16.335Z,74.63
2022-10-21T14:43:44.680Z,74.53
2022-10-21T14:46:12.085Z,74.64
2022-10-21T14:48:39.914Z,74.56
2022-10-21T14:51:11.156Z,74.60
2022-10-21T14:53:44.804Z,74.40
2022-10-21T14:56:16.069Z,74.49
2022-10-21T14:58:46.842Z,74.49
2022-10-21T15:01:15.340Z,74.58
2022-10-21T15:03:43.469Z,74.49
2022-10-21T15:06:13.975Z,74.02
2022-10-21T15:08:42.677Z,73.76
2022-10-21T15:11:18.742Z,73.88
2022-10-21T15:14:08.170Z,74.03
2022-10-21T15:16:38.192Z,73.96
2022-10-21T15:19:08.544Z,73.46
2022-10-21T15:21:38.411Z,73.37
2022-10-21T15:24:18.008Z,73.42
2022-10-21T15:26:46.600Z,73.45
2022-10-21T15:29:15.027Z,73.67
2022-10-21T15:31:42.451Z,73.74
2022-10-21T15:34:11.634Z,73.95
2022-10-21T15:36:40.328Z,73.80
2022-10-21T15:39:09.324Z,74.02
2022-10-21T15:41:36.960Z,73.81
2022-10-21T15:44:06.136Z,72.95
2022-10-21T15:46:35.438Z,72.48
2022-10-21T15:49:06.712Z,71.40
2022-10-21T15:51:34.430Z,70.98
2022-10-21T15:54:03.098Z,70.68
2022-10-21T15:56:30.500Z,70.52
2022-10-21T15:58:57.883Z,70.49
2022-10-21T16:01:25.419Z,70.09
2022-10-21T16:03:52.892Z,69.48
2022-10-21T16:06:21.443Z,69.52
2022-10-21T16:08:49.350Z,69.37
2022-10-21T16:11:25.763Z,69.15
2022-10-21T16:14:02.423Z,68.70
2022-10-21T16:16:31.068Z,69.17
2022-10-21T16:18:59.257Z,68.42
2022-10-21T16:21:27.164Z,70.87
2022-10-21T16:23:55.718Z,70.63
2022-10-21T16:26:25.184Z,70.86
2022-10-21T16:28:53.592Z,70.87
2022-10-21T16:31:21.226Z,70.97
2022-10-21T16:33:48.682Z,71.01
2022-10-21T16:36:16.893Z,70.69
2022-10-21T16:38:44.862Z,70.82
2022-10-21T16:41:12.977Z,69.80
2022-10-21T16:43:41.847Z,69.92
2022-10-21T16:46:14.952Z,69.52
2022-10-21T16:48:42.892Z,69.17
2022-10-21T16:51:10.426Z,69.58
2022-10-21T16:53:37.899Z,69.50
2022-10-21T16:56:05.514Z,69.70
2022-10-21T16:58:32.908Z,69.80
2022-10-21T17:01:02.356Z,69.86
2022-10-21T17:03:29.895Z,69.83
2022-10-21T17:05:57.282Z,69.96
2022-10-21T17:08:24.690Z,70.15
2022-10-21T17:10:52.088Z,70.50
2022-10-21T17:13:19.503Z,70.57
2022-10-21T17:15:47.003Z,70.55
2022-10-21T17:18:15.982Z,70.96
2022-10-21T17:20:43.449Z,70.81
2022-10-21T17:23:10.917Z,71.10
2022-10-21T17:25:38.299Z,71.06
2022-10-21T17:28:06.888Z,70.88
2022-10-21T17:30:34.388Z,70.93
2022-10-21T17:33:01.807Z,71.24
2022-10-21T17:35:30.548Z,71.20
2022-10-21T17:37:57.961Z,71.19
2022-10-21T17:40:26.252Z,71.29
2022-10-21T17:42:53.873Z,70.81
2022-10-21T17:45:21.470Z,71.06
2022-10-21T17:47:49.647Z,71.27
2022-10-21T17:50:23.185Z,70.94
2022-10-21T17:52:52.010Z,71.59
2022-10-21T17:55:19.647Z,71.36
2022-10-21T17:57:47.118Z,72.42
2022-10-21T18:00:14.827Z,72.48
2022-10-21T18:02:42.388Z,72.74
2022-10-21T18:05:10.401Z,72.74
2022-10-21T18:07:38.089Z,73.08
2022-10-21T18:10:07.865Z,73.06
2022-10-21T18:12:35.971Z,72.89
2022-10-21T18:15:03.431Z,73.22
2022-10-21T18:17:30.848Z,73.28
2022-10-21T18:19:58.259Z,73.23
2022-10-21T18:22:25.687Z,72.94
2022-10-21T18:24:53.658Z,73.57
2022-10-21T18:27:22.352Z,75.36
2022-10-21T18:29:49.742Z,74.63
2022-10-21T18:32:17.147Z,73.73
2022-10-21T18:34:44.551Z,73.40
2022-10-21T18:37:11.947Z,75.33
2022-10-21T18:39:39.417Z,76.65
2022-10-21T18:42:06.951Z,75.28
2022-10-21T18:44:35.633Z,74.75
2022-10-21T18:47:05.541Z,73.78
2022-10-21T18:49:35.759Z,73.61
2022-10-21T18:52:03.158Z,73.43
2022-10-21T18:54:30.564Z,73.15
2022-10-21T18:56:57.966Z,73.24
2022-10-21T18:59:25.360Z,73.82
2022-10-21T19:01:54.825Z,75.41
2022-10-21T19:04:22.318Z,75.89
2022-10-21T19:06:49.737Z,75.30
2022-10-21T19:09:18.934Z,75.16
2022-10-21T19:11:46.857Z,75.05
2022-10-21T19:14:14.748Z,74.86
2022-10-21T19:16:42.287Z,74.58
2022-10-21T19:19:10.972Z,74.21
2022-10-21T19:21:38.561Z,73.88
2022-10-21T19:24:06.241Z,73.80
2022-10-21T19:26:34.119Z,73.64
2022-10-21T19:29:01.964Z,73.72
2022-10-21T19:31:30.761Z,74.11
2022-10-21T19:33:59.791Z,73.92
2022-10-21T19:36:28.522Z,74.25
2022-10-21T19:38:55.906Z,74.06
2022-10-21T19:41:23.294Z,74.42
2022-10-21T19:43:51.641Z,74.50
2022-10-21T19:46:23.449Z,74.48
2022-10-21T19:48:52.924Z,74.54
2022-10-21T19:51:21.430Z,74.59
2022-10-21T19:53:50.836Z,74.93
2022-10-21T19:56:20.934Z,74.98
2022-10-21T19:58:51.605Z,75.41
2022-10-21T20:01:19.976Z,75.27
2022-10-21T20:03:48.031Z,75.49
2022-10-21T20:06:16.271Z,75.70
2022-10-21T20:08:43.775Z,75.87
2022-10-21T20:11:13.691Z,76.08
2022-10-21T20:13:41.211Z,76.23
2022-10-21T20:16:08.606Z,76.15
2022-10-21T20:18:35.991Z,76.35
2022-10-21T20:21:06.605Z,76.00
2022-10-21T20:23:34.018Z,76.53
2022-10-21T20:26:01.537Z,76.46
2022-10-21T20:28:30.393Z,76.74
2022-10-21T20:30:58.099Z,76.74
2022-10-21T20:33:25.548Z,76.82
2022-10-21T20:35:53.086Z,76.74
2022-10-21T20:38:20.489Z,77.08
2022-10-21T20:40:52.992Z,76.99
2022-10-21T20:43:20.408Z,77.06
2022-10-21T20:45:49.156Z,77.78
2022-10-21T20:48:16.534Z,77.55
2022-10-21T20:50:43.938Z,78.02
2022-10-21T20:53:11.350Z,77.98
2022-10-21T20:55:38.731Z,78.24
2022-10-21T20:58:06.164Z,78.27
2022-10-21T21:00:33.577Z,78.48
2022-10-21T21:03:02.267Z,78.64
2022-10-21T21:05:29.660Z,78.81
2022-10-21T21:07:57.160Z,79.02
2022-10-21T21:10:24.623Z,78.93
2022-10-21T21:12:52.051Z,79.09
2022-10-21T21:15:19.520Z,78.94
2022-10-21T21:17:48.558Z,78.80
2022-10-21T21:20:17.311Z,79.19
2022-10-21T21:22:44.757Z,79.04
2022-10-21T21:25:12.171Z,79.09
2022-10-21T21:27:39.566Z,78.76
2022-10-21T21:30:07.812Z,79.49
2022-10-21T21:32:35.195Z,79.24
2022-10-21T21:35:05.228Z,79.27
2022-10-21T21:37:34.882Z,79.52
2022-10-21T21:40:02.288Z,79.66
2022-10-21T21:42:29.694Z,79.55
2022-10-21T21:44:57.154Z,79.32
2022-10-21T21:47:24.553Z,79.53
2022-10-21T21:49:51.976Z,79.41
2022-10-21T21:52:19.357Z,79.63
2022-10-21T21:54:49.193Z,79.42
2022-10-21T21:57:33.873Z,79.46
2022-10-21T22:00:01.273Z,79.32
2022-10-21T22:02:28.675Z,79.46
2022-10-21T22:04:56.091Z,79.32
2022-10-21T22:07:23.513Z,80.18
2022-10-21T22:09:52.191Z,79.73
2022-10-21T22:12:22.942Z,79.74
2022-10-21T22:14:50.684Z,79.36
2022-10-21T22:17:18.109Z,79.14
2022-10-21T22:19:45.546Z,78.89
2022-10-21T22:22:12.935Z,79.30
2022-10-21T22:24:40.410Z,78.88
2022-10-21T22:27:09.113Z,78.97
2022-10-21T22:29:36.572Z,78.81
2022-10-21T22:32:03.972Z,78.97
2022-10-21T22:34:31.396Z,78.73
2022-10-21T22:36:58.822Z,78.57
2022-10-21T22:39:26.381Z,78.77
2022-10-21T22:41:53.836Z,78.48
2022-10-21T22:44:22.698Z,78.74
2022-10-21T22:46:50.109Z,78.66
2022-10-21T22:49:17.615Z,78.57
2022-10-21T22:51:45.053Z,78.81
2022-10-21T22:54:29.686Z,78.75
2022-10-21T22:56:59.885Z,78.66
2022-10-21T22:59:28.617Z,79.01
2022-10-21T23:01:56.022Z,79.27
2022-10-21T23:04:23.431Z,79.24
2022-10-21T23:06:50.859Z,79.17
2022-10-21T23:09:18.308Z,78.96
2022-10-21T23:11:47.051Z,78.98
2022-10-21T23:14:14.480Z,79.04
2022-10-21T23:16:43.144Z,78.87
2022-10-21T23:21:42.933Z,78.85
2022-10-21T23:24:10.384Z,78.73
2022-10-21T23:26:37.802Z,78.95
2022-10-21T23:29:05.279Z,78.88
2022-10-21T23:31:32.697Z,78.83
2022-10-21T23:34:01.391Z,79.49
2022-10-21T23:36:28.783Z,79.41
2022-10-21T23:38:56.389Z,79.32
2022-10-21T23:41:23.937Z,79.56
2022-10-21T23:43:51.383Z,79.52
2022-10-21T23:46:18.826Z,79.23
2022-10-21T23:48:46.271Z,79.76
2022-10-21T23:51:14.996Z,80.37
2022-10-21T23:53:42.405Z,79.97
2022-10-21T23:56:09.787Z,79.70
2022-10-21T23:58:37.181Z,79.66
